Time;durP1;ratioP1;P1;durP2;ratioP2;P2;SDS_P1;SDS_P2;PMS_P1;PMS_P2;Temp;Humidity;BMP_temperature;BMP_pressure;BME280_temperature;BME280_humidity;BME280_pressure;Samples;Min_cycle;Max_cycle;Signal;HPM_P1;HPM_P2
2021/12/07 00:01:40;;;;;;;6.78;4.38;;;3.10;99.90;;;;;;5062092;28;20028;-79
2021/12/07 00:04:06;;;;;;;8.15;5.28;;;3.20;99.90;;;;;;5064620;28;20024;-79
2021/12/07 00:06:32;;;;;;;6.05;4.93;;;3.20;99.90;;;;;;5093926;28;20028;-79
2021/12/07 00:08:58;;;;;;;5.55;4.88;;;3.10;99.90;;;;;;5056319;28;20042;-79
2021/12/07 00:11:28;;;;;;;6.93;5.30;;;3.10;99.90;;;;;;5096001;28;20114;-79
2021/12/07 00:13:57;;;;;;;7.22;5.82;;;3.20;99.90;;;;;;5114007;28;20471;-79
2021/12/07 00:16:24;;;;;;;11.13;7.72;;;3.20;99.90;;;;;;5113882;28;20023;-79
2021/12/07 00:18:49;;;;;;;11.88;7.75;;;3.20;99.90;;;;;;5103597;28;20044;-80
2021/12/07 00:21:17;;;;;;;15.25;10.20;;;3.20;99.90;;;;;;5067098;28;20027;-79
2021/12/07 00:23:44;;;;;;;13.85;10.73;;;3.20;99.90;;;;;;5095566;28;20027;-79
2021/12/07 00:26:12;;;;;;;10.43;8.15;;;3.20;99.90;;;;;;5078838;28;20559;-80
2021/12/07 00:28:38;;;;;;;16.15;10.82;;;3.20;99.90;;;;;;5093386;28;20552;-79
2021/12/07 00:31:21;;;;;;;13.93;9.85;;;3.30;99.90;;;;;;5095437;28;20027;-79
2021/12/07 00:33:54;;;;;;;16.55;12.02;;;3.30;99.90;;;;;;5098097;28;20030;-79
2021/12/07 00:36:19;;;;;;;27.88;16.17;;;3.30;99.90;;;;;;5113451;28;20073;-79
2021/12/07 00:38:45;;;;;;;23.02;15.98;;;3.40;99.90;;;;;;5078301;28;20032;-80
2021/12/07 00:41:12;;;;;;;25.15;16.90;;;3.40;99.90;;;;;;5113578;28;20043;-80
2021/12/07 00:43:38;;;;;;;29.17;16.30;;;3.40;99.90;;;;;;5080411;28;20032;-80
2021/12/07 00:46:04;;;;;;;27.40;18.45;;;3.40;99.90;;;;;;5074406;28;20028;-79
2021/12/07 00:48:30;;;;;;;23.05;16.00;;;3.40;99.90;;;;;;5073841;28;20055;-80
2021/12/07 00:50:57;;;;;;;27.35;17.58;;;3.50;99.90;;;;;;5074419;28;20564;-80
2021/12/07 00:53:26;;;;;;;31.45;19.00;;;3.50;99.90;;;;;;5065359;28;20028;-80
2021/12/07 00:55:55;;;;;;;28.17;16.92;;;3.50;99.90;;;;;;5113111;28;20054;-80
2021/12/07 00:58:24;;;;;;;24.38;15.77;;;3.50;99.90;;;;;;5087554;28;20390;-80
2021/12/07 01:01:04;;;;;;;26.30;16.52;;;3.50;99.90;;;;;;5093881;28;20031;-80
2021/12/07 01:03:30;;;;;;;32.08;17.48;;;3.60;99.90;;;;;;5094269;28;20164;-80
2021/12/07 01:06:23;;;;;;;27.17;17.17;;;3.60;99.90;;;;;;5113532;28;20026;-80
2021/12/07 01:25:04;;;;;;;28.88;18.00;;;3.70;99.90;;;;;;5095984;28;20034;-79
2021/12/07 01:27:30;;;;;;;37.88;17.77;;;3.70;99.90;;;;;;5076176;28;20040;-79
2021/12/07 01:59:35;;;;;;;36.67;14.50;;;4.10;99.90;;;;;;5114663;28;20080;-80
2021/12/07 02:02:10;;;;;;;42.20;15.20;;;4.10;99.90;;;;;;5108163;28;20670;-80
2021/12/07 02:04:37;;;;;;;44.47;14.60;;;4.20;99.90;;;;;;5094911;28;20063;-79
2021/12/07 02:07:10;;;;;;;38.63;13.95;;;4.30;99.90;;;;;;5081772;28;20030;-79
2021/12/07 02:09:39;;;;;;;48.25;15.00;;;4.30;99.90;;;;;;5079634;28;20433;-79
2021/12/07 02:12:06;;;;;;;29.42;13.13;;;4.40;99.90;;;;;;5078079;28;20021;-79
2021/12/07 02:14:32;;;;;;;41.83;12.68;;;4.40;99.90;;;;;;5061229;28;20036;-79
2021/12/07 02:17:03;;;;;;;40.15;11.75;;;4.40;99.90;;;;;;5089172;28;20035;-79
2021/12/07 02:19:29;;;;;;;41.97;12.43;;;4.40;99.90;;;;;;5115931;28;20092;-79
2021/12/07 02:21:57;;;;;;;51.53;13.25;;;4.40;99.90;;;;;;5106731;28;20036;-79
2021/12/07 02:24:22;;;;;;;41.72;12.57;;;4.40;99.90;;;;;;5078864;28;20052;-79
2021/12/07 02:26:48;;;;;;;33.60;11.85;;;4.30;99.90;;;;;;5097554;28;20116;-79
2021/12/07 02:29:15;;;;;;;37.72;12.15;;;4.30;99.90;;;;;;5096942;28;20032;-79
2021/12/07 02:31:42;;;;;;;40.83;13.80;;;4.30;99.90;;;;;;5098682;28;20024;-80
2021/12/07 02:34:07;;;;;;;37.22;12.77;;;4.30;99.90;;;;;;5095981;28;20028;-79
2021/12/07 02:36:35;;;;;;;40.53;11.73;;;4.30;99.90;;;;;;5059998;28;20032;-79
2021/12/07 02:39:02;;;;;;;38.33;11.38;;;4.30;99.90;;;;;;5076719;28;20457;-79
2021/12/07 02:41:28;;;;;;;38.92;11.55;;;4.30;99.90;;;;;;5078262;28;20036;-79
2021/12/07 02:43:53;;;;;;;35.78;11.82;;;4.30;99.90;;;;;;5059769;28;20603;-79
2021/12/07 02:46:19;;;;;;;35.22;11.20;;;4.40;99.90;;;;;;5077219;28;20036;-79
2021/12/07 02:48:45;;;;;;;34.33;10.38;;;4.40;99.90;;;;;;5064110;28;20128;-79
2021/12/07 02:51:10;;;;;;;30.15;10.00;;;4.40;99.90;;;;;;5076718;28;20032;-79
2021/12/07 02:53:37;;;;;;;32.97;10.23;;;4.40;99.90;;;;;;5101323;28;20028;-79
2021/12/07 02:56:04;;;;;;;30.33;9.10;;;4.40;99.90;;;;;;5093332;28;20047;-79
2021/12/07 02:58:30;;;;;;;44.75;10.63;;;4.40;99.90;;;;;;5094245;28;20112;-80
2021/12/07 03:01:07;;;;;;;44.50;9.40;;;4.40;99.90;;;;;;5077049;28;20052;-79
2021/12/07 03:03:38;;;;;;;38.10;9.10;;;4.40;99.90;;;;;;5094889;28;20059;-79
2021/12/07 03:06:24;;;;;;;33.28;9.50;;;4.40;99.90;;;;;;5077534;28;20439;-80
2021/12/07 03:28:07;;;;;;;42.22;8.02;;;4.20;99.90;;;;;;5093831;28;20051;-80
2021/12/07 03:30:32;;;;;;;27.45;6.93;;;4.20;99.90;;;;;;5058678;28;20051;-79
2021/12/07 03:33:00;;;;;;;31.33;7.20;;;4.20;99.90;;;;;;5075885;28;20055;-79
2021/12/07 03:35:26;;;;;;;33.50;6.90;;;4.20;99.90;;;;;;5075537;28;20758;-79
2021/12/07 03:37:53;;;;;;;35.70;7.72;;;4.20;99.90;;;;;;5091122;28;20032;-79
2021/12/07 03:40:18;;;;;;;30.98;7.15;;;4.20;99.90;;;;;;5074163;28;20028;-79
2021/12/07 03:42:44;;;;;;;30.45;6.72;;;4.20;99.90;;;;;;5055839;28;20025;-79
2021/12/07 03:45:10;;;;;;;30.85;6.80;;;4.20;99.90;;;;;;5072756;28;20078;-79
2021/12/07 03:47:36;;;;;;;28.92;6.68;;;4.10;99.90;;;;;;5072599;28;20024;-79
2021/12/07 03:50:02;;;;;;;31.40;7.15;;;4.10;99.90;;;;;;5074552;28;20512;-79
2021/12/07 03:52:28;;;;;;;27.70;5.78;;;4.10;99.90;;;;;;5075275;28;20115;-80
2021/12/07 03:54:54;;;;;;;30.50;6.53;;;4.10;99.90;;;;;;5073772;28;20463;-79
2021/12/07 03:57:19;;;;;;;20.60;5.85;;;4.10;99.90;;;;;;5079099;28;20034;-79
2021/12/07 03:59:45;;;;;;;27.35;6.30;;;4.00;99.90;;;;;;5114296;28;20055;-79
2021/12/07 04:02:11;;;;;;;38.95;5.93;;;4.00;99.90;;;;;;5088962;28;20066;-79
2021/12/07 04:04:38;;;;;;;32.20;5.68;;;4.00;99.90;;;;;;5061065;28;20024;-79
2021/12/07 04:07:04;;;;;;;33.65;6.15;;;3.90;99.90;;;;;;5106700;28;20361;-79
2021/12/07 04:09:31;;;;;;;32.08;6.00;;;3.90;99.90;;;;;;5075992;28;20024;-80
2021/12/07 04:11:57;;;;;;;40.85;7.10;;;3.90;99.90;;;;;;5093778;28;20023;-80
2021/12/07 04:14:23;;;;;;;34.78;6.45;;;3.90;99.90;;;;;;5058983;28;20131;-79
2021/12/07 04:16:48;;;;;;;33.72;7.00;;;3.90;99.90;;;;;;5058956;28;20071;-79
2021/12/07 04:19:14;;;;;;;30.95;6.25;;;3.80;99.90;;;;;;5053339;28;20193;-79
2021/12/07 04:21:39;;;;;;;39.28;6.85;;;3.90;99.90;;;;;;5095744;28;20027;-80
2021/12/07 04:24:05;;;;;;;30.42;5.60;;;3.80;99.90;;;;;;5095629;28;20064;-80
2021/12/07 04:26:31;;;;;;;32.08;6.85;;;3.80;99.90;;;;;;5061864;28;20031;-79
2021/12/07 04:28:58;;;;;;;24.88;5.55;;;3.80;99.90;;;;;;5092991;28;20473;-79
2021/12/07 04:31:24;;;;;;;34.35;6.13;;;3.80;99.90;;;;;;5075543;28;20109;-79
2021/12/07 04:33:49;;;;;;;35.42;7.15;;;3.80;99.90;;;;;;5093288;28;20054;-80
2021/12/07 04:36:15;;;;;;;41.67;6.30;;;3.80;99.90;;;;;;5076613;28;20558;-80
2021/12/07 04:38:42;;;;;;;27.65;5.88;;;3.80;99.90;;;;;;5078675;28;20105;-80
2021/12/07 04:41:08;;;;;;;33.97;5.60;;;3.80;99.90;;;;;;5088909;28;20047;-79
2021/12/07 04:43:35;;;;;;;35.33;5.82;;;3.80;99.90;;;;;;5093204;28;20031;-79
2021/12/07 04:46:11;;;;;;;43.53;6.88;;;3.70;99.90;;;;;;5092639;28;20020;-79
2021/12/07 04:49:09;;;;;;;32.72;5.80;;;3.70;99.90;;;;;;5076474;28;20061;-80
2021/12/07 04:59:38;;;;;;;31.95;5.90;;;3.70;99.90;;;;;;5092953;28;20065;-79
2021/12/07 05:02:04;;;;;;;27.70;6.22;;;3.70;99.90;;;;;;5092839;28;20113;-79
2021/12/07 05:04:33;;;;;;;24.83;4.68;;;3.60;99.90;;;;;;5094167;28;20038;-79
2021/12/07 05:07:11;;;;;;;28.83;4.78;;;3.60;99.90;;;;;;5090068;28;20028;-79
2021/12/07 05:14:40;;;;;;;22.40;4.78;;;3.60;99.90;;;;;;5085742;28;20500;-79
2021/12/07 05:38:55;;;;;;;32.25;5.63;;;3.40;99.90;;;;;;5049404;28;20807;-79
2021/12/07 05:41:23;;;;;;;22.25;4.75;;;3.40;99.90;;;;;;5081402;28;20046;-79
2021/12/07 05:43:49;;;;;;;22.23;4.45;;;3.40;99.90;;;;;;5113061;28;20031;-79
2021/12/07 05:46:14;;;;;;;24.05;4.68;;;3.40;99.90;;;;;;5075317;28;20028;-79
2021/12/07 05:48:40;;;;;;;35.63;5.50;;;3.30;99.90;;;;;;5057434;28;20027;-79
2021/12/07 05:51:05;;;;;;;24.48;4.93;;;3.30;99.90;;;;;;5092335;28;20534;-80
2021/12/07 05:53:31;;;;;;;25.20;4.32;;;3.30;99.90;;;;;;5059064;28;20032;-79
2021/12/07 05:55:57;;;;;;;32.17;5.50;;;3.30;99.90;;;;;;5093139;28;20044;-80
2021/12/07 05:58:23;;;;;;;30.05;4.47;;;3.20;99.90;;;;;;5064701;28;20028;-80
2021/12/07 06:00:49;;;;;;;22.25;5.18;;;3.20;99.90;;;;;;5078042;28;20067;-79
2021/12/07 06:03:15;;;;;;;27.05;4.10;;;3.20;99.90;;;;;;5077992;28;20073;-79
2021/12/07 06:05:42;;;;;;;21.23;4.30;;;3.20;99.90;;;;;;5096867;28;20036;-79
2021/12/07 06:08:08;;;;;;;21.33;4.20;;;3.20;99.90;;;;;;5093172;28;20627;-79
2021/12/07 06:10:34;;;;;;;34.20;5.03;;;3.20;99.90;;;;;;5080648;28;20035;-79
2021/12/07 06:13:00;;;;;;;20.63;5.55;;;3.20;99.90;;;;;;5073773;28;20020;-80
2021/12/07 06:15:28;;;;;;;20.52;4.70;;;3.20;99.90;;;;;;5097437;28;20027;-80
2021/12/07 06:17:54;;;;;;;15.70;3.97;;;3.20;99.90;;;;;;5101621;28;20476;-81
2021/12/07 06:20:21;;;;;;;26.65;4.57;;;3.20;99.90;;;;;;5073511;28;20507;-81
2021/12/07 06:22:47;;;;;;;20.00;5.00;;;3.20;99.90;;;;;;5077711;28;20032;-81
2021/12/07 06:25:13;;;;;;;29.77;5.50;;;3.10;99.90;;;;;;5086093;28;20030;-81
2021/12/07 06:27:40;;;;;;;37.58;6.30;;;3.20;99.90;;;;;;5116154;28;20027;-81
2021/12/07 06:30:07;;;;;;;29.30;6.03;;;3.10;99.90;;;;;;5081035;28;20460;-81
2021/12/07 06:32:33;;;;;;;33.42;6.40;;;3.10;99.90;;;;;;5085464;28;20028;-78
2021/12/07 06:34:59;;;;;;;32.75;5.60;;;3.10;99.90;;;;;;5062466;28;20127;-78
2021/12/07 06:37:25;;;;;;;24.02;5.07;;;3.00;99.90;;;;;;5095676;28;20088;-78
2021/12/07 06:39:51;;;;;;;25.13;5.50;;;3.10;99.90;;;;;;5093931;28;20020;-78
2021/12/07 06:42:17;;;;;;;18.50;4.97;;;3.00;99.90;;;;;;5095775;28;20391;-79
2021/12/07 06:44:43;;;;;;;24.17;5.30;;;3.10;99.90;;;;;;5076479;28;20480;-78
2021/12/07 06:47:08;;;;;;;23.52;5.30;;;3.10;99.90;;;;;;5107784;28;20024;-79
2021/12/07 06:49:34;;;;;;;36.28;6.20;;;3.00;99.90;;;;;;5097171;28;20062;-79
2021/12/07 06:52:01;;;;;;;19.85;5.30;;;3.00;99.90;;;;;;5070826;28;20032;-79
2021/12/07 06:54:26;;;;;;;27.90;5.47;;;3.00;99.90;;;;;;5090955;28;20433;-79
2021/12/07 06:56:55;;;;;;;18.38;4.75;;;2.90;99.90;;;;;;5095971;28;20052;-79
2021/12/07 06:59:21;;;;;;;21.85;5.43;;;2.90;99.90;;;;;;5095640;28;20055;-78
2021/12/07 07:01:47;;;;;;;25.33;5.53;;;2.90;99.90;;;;;;5093375;28;20086;-78
2021/12/07 07:04:14;;;;;;;22.83;5.35;;;2.90;99.90;;;;;;5046546;28;20376;-79
2021/12/07 07:06:41;;;;;;;27.25;5.07;;;2.80;99.90;;;;;;5083308;28;20478;-79
2021/12/07 07:09:08;;;;;;;22.60;5.20;;;2.80;99.90;;;;;;5073053;28;20032;-79
2021/12/07 07:11:34;;;;;;;28.58;6.40;;;2.80;99.90;;;;;;5076409;28;20057;-78
2021/12/07 07:14:01;;;;;;;20.67;6.43;;;2.80;99.90;;;;;;5074023;28;20662;-79
2021/12/07 07:16:27;;;;;;;19.88;5.55;;;2.80;99.90;;;;;;5087734;28;20055;-78
2021/12/07 07:18:53;;;;;;;18.90;6.05;;;2.80;99.90;;;;;;5074657;28;20058;-79
2021/12/07 07:21:19;;;;;;;20.95;5.47;;;2.80;99.90;;;;;;5079142;28;20766;-78
2021/12/07 07:23:45;;;;;;;18.70;5.88;;;2.70;99.90;;;;;;5088340;28;20039;-78
2021/12/07 07:26:10;;;;;;;26.92;6.13;;;2.80;99.90;;;;;;5093349;28;20031;-79
2021/12/07 07:28:36;;;;;;;24.63;5.95;;;2.70;99.90;;;;;;5091608;28;20031;-79
2021/12/07 07:31:05;;;;;;;23.98;5.40;;;2.80;99.90;;;;;;5059132;28;20042;-79
2021/12/07 07:33:30;;;;;;;23.38;5.22;;;2.70;99.90;;;;;;5110777;28;20037;-79
2021/12/07 07:35:56;;;;;;;21.05;5.28;;;2.80;99.90;;;;;;5074271;28;20028;-79
2021/12/07 07:38:22;;;;;;;25.55;5.95;;;2.70;99.90;;;;;;5084796;28;20032;-78
2021/12/07 07:40:48;;;;;;;16.98;4.60;;;2.70;99.90;;;;;;5065855;28;20028;-79
2021/12/07 07:43:16;;;;;;;19.08;4.88;;;2.70;99.90;;;;;;5087457;28;20042;-79
2021/12/07 07:45:46;;;;;;;21.35;5.03;;;2.70;99.90;;;;;;5101845;28;20110;-79
2021/12/07 07:48:12;;;;;;;21.35;5.43;;;2.70;99.90;;;;;;5090386;28;20119;-79
2021/12/07 07:50:37;;;;;;;21.80;4.28;;;2.80;99.90;;;;;;5092840;28;20107;-79
2021/12/07 07:53:04;;;;;;;16.48;4.30;;;2.80;99.90;;;;;;5088138;28;20430;-79
2021/12/07 07:55:30;;;;;;;20.60;4.18;;;2.80;99.90;;;;;;5109196;28;20650;-79
2021/12/07 07:57:55;;;;;;;21.80;4.30;;;2.80;99.90;;;;;;5098151;28;20028;-79
2021/12/07 08:00:22;;;;;;;17.55;4.20;;;2.80;99.90;;;;;;5090324;28;20089;-78
2021/12/07 08:02:48;;;;;;;22.73;5.10;;;2.80;99.90;;;;;;5072544;28;20059;-79
2021/12/07 08:05:15;;;;;;;15.88;3.85;;;2.80;99.90;;;;;;5076323;28;20023;-79
2021/12/07 08:07:41;;;;;;;14.93;3.97;;;2.80;99.90;;;;;;5075907;28;20044;-79
2021/12/07 08:10:08;;;;;;;22.40;4.28;;;2.80;99.90;;;;;;5092507;28;20027;-79
2021/12/07 08:12:35;;;;;;;19.25;5.35;;;2.80;99.90;;;;;;5081214;28;20036;-78
2021/12/07 08:15:01;;;;;;;19.77;4.70;;;2.80;99.90;;;;;;5075462;28;20019;-79
2021/12/07 08:17:26;;;;;;;15.55;4.13;;;2.80;99.90;;;;;;5066154;28;20032;-79
2021/12/07 08:19:52;;;;;;;25.05;4.35;;;2.80;99.90;;;;;;5088438;28;20502;-78
2021/12/07 08:22:18;;;;;;;14.02;4.20;;;2.90;99.90;;;;;;5076260;28;20032;-78
2021/12/07 08:24:44;;;;;;;24.83;4.82;;;2.90;99.90;;;;;;5076111;28;20514;-78
2021/12/07 08:27:10;;;;;;;24.98;4.40;;;2.90;99.90;;;;;;5092258;28;20164;-78
2021/12/07 08:29:35;;;;;;;18.63;4.00;;;3.00;99.90;;;;;;5044781;28;20521;-79
2021/12/07 08:32:01;;;;;;;26.67;4.80;;;3.00;99.90;;;;;;5055444;28;20036;-79
2021/12/07 08:34:27;;;;;;;19.70;4.65;;;3.00;99.90;;;;;;5084541;28;20085;-79
2021/12/07 08:36:53;;;;;;;21.30;4.35;;;3.10;99.90;;;;;;5092381;28;20028;-79
2021/12/07 08:39:18;;;;;;;20.67;4.97;;;3.10;99.90;;;;;;5074914;28;20039;-79
2021/12/07 08:41:44;;;;;;;28.60;5.57;;;3.10;99.90;;;;;;5092058;28;20555;-78
2021/12/07 08:44:10;;;;;;;18.65;4.45;;;3.20;99.90;;;;;;5059563;28;20082;-79
2021/12/07 08:46:36;;;;;;;20.42;4.57;;;3.30;99.90;;;;;;5091510;28;20036;-79
2021/12/07 08:49:03;;;;;;;17.50;4.13;;;3.30;99.90;;;;;;5074651;28;20038;-79
2021/12/07 08:51:29;;;;;;;31.38;4.75;;;3.30;99.90;;;;;;5091845;28;20036;-79
2021/12/07 08:54:02;;;;;;;16.05;3.97;;;3.40;99.90;;;;;;5075101;28;20028;-76
2021/12/07 08:59:42;;;;;;;17.13;3.83;;;3.50;99.90;;;;;;5047777;28;20028;-79
2021/12/07 09:02:07;;;;;;;28.92;4.82;;;3.50;99.90;;;;;;5072568;28;20497;-77
2021/12/07 09:04:33;;;;;;;25.08;3.83;;;3.50;99.90;;;;;;5080475;28;20101;-77
2021/12/07 09:07:00;;;;;;;24.00;4.15;;;3.50;99.90;;;;;;5083899;28;20032;-77
2021/12/07 09:09:27;;;;;;;24.50;4.20;;;3.50;99.90;;;;;;5089511;28;20048;-77
2021/12/07 09:11:55;;;;;;;18.45;3.65;;;3.50;99.90;;;;;;5090772;28;20051;-77
2021/12/07 09:14:22;;;;;;;24.58;4.53;;;3.50;99.90;;;;;;5091919;28;20028;-80
2021/12/07 09:16:48;;;;;;;17.48;3.88;;;3.60;99.90;;;;;;5091785;28;20028;-80
2021/12/07 09:19:14;;;;;;;16.20;3.85;;;3.60;99.90;;;;;;5091620;28;20472;-81
2021/12/07 09:21:40;;;;;;;19.42;4.00;;;3.70;99.90;;;;;;5074836;28;20472;-80
2021/12/07 09:24:06;;;;;;;18.35;3.97;;;3.70;99.90;;;;;;5092902;28;20020;-81
2021/12/07 09:26:32;;;;;;;18.10;4.13;;;3.70;99.90;;;;;;5089256;28;20035;-81
2021/12/07 09:28:58;;;;;;;12.80;3.50;;;3.80;99.90;;;;;;5089068;28;20039;-80
2021/12/07 09:31:24;;;;;;;17.00;3.58;;;3.80;99.90;;;;;;5088568;28;20032;-81
2021/12/07 09:33:49;;;;;;;22.95;4.50;;;3.80;99.90;;;;;;5056716;28;20036;-81
2021/12/07 09:36:16;;;;;;;21.55;3.80;;;3.90;99.90;;;;;;5074298;28;20024;-81
2021/12/07 09:38:42;;;;;;;21.23;4.22;;;3.90;99.90;;;;;;5041553;28;20369;-81
2021/12/07 09:41:10;;;;;;;18.73;3.63;;;3.90;99.90;;;;;;5074390;28;20028;-80
2021/12/07 09:43:36;;;;;;;22.77;3.47;;;4.00;99.90;;;;;;5075351;28;20528;-80
2021/12/07 09:46:04;;;;;;;16.90;4.05;;;4.10;99.90;;;;;;5057923;28;20124;-80
2021/12/07 09:48:30;;;;;;;16.33;3.67;;;4.10;99.90;;;;;;5092204;28;20028;-80
2021/12/07 09:50:57;;;;;;;26.80;4.75;;;4.20;99.90;;;;;;5061364;28;20035;-81
2021/12/07 09:53:25;;;;;;;19.95;3.95;;;4.20;99.90;;;;;;5096122;28;20020;-80
2021/12/07 09:55:51;;;;;;;25.05;4.82;;;4.30;99.90;;;;;;5075320;28;20047;-81
2021/12/07 09:58:17;;;;;;;21.10;4.32;;;4.30;99.90;;;;;;5092061;28;20139;-81
2021/12/07 10:00:45;;;;;;;27.77;4.78;;;4.30;99.90;;;;;;5048641;28;20039;-80
2021/12/07 10:03:12;;;;;;;18.48;3.85;;;4.40;99.90;;;;;;5081443;28;20092;-81
2021/12/07 10:05:40;;;;;;;21.02;4.32;;;4.40;99.90;;;;;;5089857;28;20059;-81
2021/12/07 10:08:07;;;;;;;19.08;4.45;;;4.40;99.90;;;;;;5070176;28;20077;-81
2021/12/07 10:10:38;;;;;;;23.52;5.05;;;4.40;99.90;;;;;;5073061;28;20058;-80
2021/12/07 10:13:06;;;;;;;21.58;4.53;;;4.50;99.90;;;;;;5094340;28;20031;-86
2021/12/07 10:15:32;;;;;;;22.42;4.20;;;4.50;99.90;;;;;;5093339;28;20139;-80
2021/12/07 10:18:07;;;;;;;24.63;4.90;;;4.60;99.90;;;;;;5093391;28;20089;-80
2021/12/07 10:20:43;;;;;;;19.42;4.82;;;4.60;99.90;;;;;;5093041;28;20058;-81
2021/12/07 10:23:17;;;;;;;19.30;4.57;;;4.60;99.90;;;;;;5094477;28;20449;-81
2021/12/07 10:25:46;;;;;;;17.95;5.07;;;4.70;99.90;;;;;;5094033;28;20027;-81
2021/12/07 10:28:27;;;;;;;;;;;4.70;99.90;;;;;;5089945;28;20469;-81
2021/12/07 10:30:55;;;;;;;22.33;4.82;;;4.70;99.90;;;;;;5074712;28;20007;-82
2021/12/07 10:33:30;;;;;;;18.27;3.92;;;4.70;99.90;;;;;;5073983;28;20020;-82
2021/12/07 10:36:15;;;;;;;17.60;4.47;;;4.80;99.90;;;;;;5093358;28;20043;-82
2021/12/07 10:38:46;;;;;;;18.13;4.95;;;4.80;99.90;;;;;;5093808;28;20032;-81
2021/12/07 10:41:15;;;;;;;27.83;4.95;;;4.90;99.90;;;;;;5075976;28;20047;-82
2021/12/07 10:44:06;;;;;;;22.85;5.00;;;4.90;99.90;;;;;;5044404;28;20147;-81
2021/12/07 10:46:40;;;;;;;19.80;4.80;;;5.00;99.90;;;;;;5082396;28;20028;-82
2021/12/07 10:49:18;;;;;;;18.27;4.75;;;5.00;99.90;;;;;;5079597;28;20038;-82
2021/12/07 10:52:04;;;;;;;17.02;4.63;;;5.10;99.90;;;;;;5072999;28;20095;-82
2021/12/07 10:54:33;;;;;;;23.27;4.43;;;5.10;99.90;;;;;;5092332;28;20036;-82
2021/12/07 10:57:02;;;;;;;25.35;5.00;;;5.20;99.90;;;;;;5089239;28;20040;-82
2021/12/07 10:59:27;;;;;;;18.95;4.82;;;5.20;99.90;;;;;;5060220;28;20040;-82
2021/12/07 11:01:53;;;;;;;18.65;4.50;;;5.20;99.90;;;;;;5089315;28;20031;-82
2021/12/07 11:04:33;;;;;;;23.75;5.75;;;5.30;99.90;;;;;;5071344;28;20358;-82
2021/12/07 11:07:09;;;;;;;22.55;5.07;;;5.30;99.90;;;;;;5086643;28;20116;-83
2021/12/07 11:09:56;;;;;;;21.92;4.82;;;5.30;99.90;;;;;;5083320;28;20040;-82
2021/12/07 11:12:23;;;;;;;23.25;4.93;;;5.40;99.90;;;;;;5091591;28;20166;-83
2021/12/07 11:14:53;;;;;;;17.73;4.57;;;5.50;99.90;;;;;;5076470;28;20035;-83
2021/12/07 11:17:25;;;;;;;23.95;5.28;;;5.50;99.90;;;;;;5092037;28;20144;-82
2021/12/07 11:19:52;;;;;;;22.05;4.25;;;5.50;99.90;;;;;;5093169;28;20119;-82
2021/12/07 11:22:23;;;;;;;18.05;3.92;;;5.60;99.90;;;;;;5094258;28;20024;-82
2021/12/07 11:24:51;;;;;;;17.35;3.65;;;5.60;99.90;;;;;;5093290;28;20036;-82
2021/12/07 11:30:29;;;;;;;20.77;4.88;;;5.60;99.90;;;;;;5094483;28;20030;-82
2021/12/07 11:32:57;;;;;;;16.77;3.95;;;5.70;99.90;;;;;;5083896;28;20025;-82
2021/12/07 11:35:35;;;;;;;15.90;3.80;;;5.70;99.90;;;;;;5093249;28;20046;-82
2021/12/07 11:38:05;;;;;;;16.17;3.28;;;5.80;99.90;;;;;;5092964;28;20031;-82
2021/12/07 11:40:37;;;;;;;15.82;3.20;;;6.20;99.60;;;;;;5094450;28;20388;-82
2021/12/07 11:43:16;;;;;;;13.10;3.55;;;6.80;98.30;;;;;;5093618;28;20059;-82
2021/12/07 11:45:45;;;;;;;13.52;3.50;;;7.20;96.80;;;;;;5092534;28;20503;-82
2021/12/07 11:48:11;;;;;;;16.30;3.60;;;7.60;95.50;;;;;;5084476;28;20127;-82
2021/12/07 11:50:42;;;;;;;15.55;2.95;;;8.00;94.40;;;;;;5092046;28;20039;-82
2021/12/07 11:53:10;;;;;;;20.45;3.97;;;8.60;93.00;;;;;;5086216;28;20094;-81
2021/12/07 11:55:39;;;;;;;12.23;2.63;;;9.10;91.50;;;;;;5099958;28;20097;-80
2021/12/07 11:58:07;;;;;;;13.57;3.13;;;9.50;90.50;;;;;;5095854;28;20027;-80
2021/12/07 12:00:40;;;;;;;17.15;2.95;;;9.50;90.50;;;;;;5079295;28;20109;-80
2021/12/07 12:03:12;;;;;;;19.17;2.85;;;9.60;89.90;;;;;;5096024;28;20059;-80
2021/12/07 12:05:40;;;;;;;22.98;3.08;;;9.80;88.00;;;;;;5095601;28;20020;-80
2021/12/07 12:08:09;;;;;;;16.38;2.60;;;9.60;89.00;;;;;;5095590;28;20040;-80
2021/12/07 12:10:41;;;;;;;18.77;3.25;;;9.00;90.60;;;;;;5095408;28;20028;-80
2021/12/07 12:13:15;;;;;;;11.63;2.50;;;8.40;92.00;;;;;;5113537;28;20027;-80
2021/12/07 12:16:01;;;;;;;12.30;2.65;;;8.10;92.90;;;;;;5095417;28;20036;-80
2021/12/07 12:18:42;;;;;;;21.27;3.40;;;8.00;93.70;;;;;;5113623;28;20055;-80
2021/12/07 12:21:44;;;;;;;16.88;3.10;;;7.80;94.30;;;;;;5095434;28;20031;-80
2021/12/07 12:24:19;;;;;;;12.60;2.80;;;7.90;94.10;;;;;;5095593;28;20472;-80
2021/12/07 12:26:45;;;;;;;13.10;2.72;;;8.10;94.20;;;;;;5095187;28;20131;-80
2021/12/07 12:29:23;;;;;;;16.85;2.88;;;8.10;94.30;;;;;;5061996;28;20059;-80
2021/12/07 12:31:55;;;;;;;12.07;3.15;;;8.00;94.40;;;;;;5095617;28;20026;-80
2021/12/07 12:34:29;;;;;;;18.40;2.83;;;8.00;94.30;;;;;;5114240;28;20027;-80
2021/12/07 12:36:58;;;;;;;13.50;2.95;;;7.90;94.00;;;;;;5113902;28;20024;-80
2021/12/07 12:39:55;;;;;;;12.05;2.80;;;7.80;94.30;;;;;;5095641;28;20023;-80
2021/12/07 12:42:31;;;;;;;15.13;2.75;;;7.60;95.10;;;;;;5095368;28;20032;-80
2021/12/07 12:44:57;;;;;;;14.00;3.25;;;7.70;94.90;;;;;;5095683;28;20031;-80
2021/12/07 12:47:28;;;;;;;11.88;2.67;;;7.70;94.70;;;;;;5112941;28;20027;-80
2021/12/07 12:49:54;;;;;;;16.67;2.80;;;7.80;94.40;;;;;;5095063;28;20122;-80
2021/12/07 12:52:41;;;;;;;19.10;2.72;;;7.80;94.00;;;;;;5078779;28;20028;-80
2021/12/07 12:55:24;;;;;;;13.30;2.53;;;8.00;93.10;;;;;;5095201;28;20020;-80
2021/12/07 12:57:51;;;;;;;12.45;2.75;;;8.10;93.20;;;;;;5113364;28;20026;-80
2021/12/07 13:00:16;;;;;;;15.68;2.55;;;8.10;93.10;;;;;;5095561;28;20035;-80
2021/12/07 13:02:49;;;;;;;17.42;3.10;;;8.00;93.30;;;;;;5078341;28;20032;-80
2021/12/07 13:05:16;;;;;;;13.45;2.72;;;8.10;93.00;;;;;;5113578;28;20061;-80
2021/12/07 13:07:42;;;;;;;18.60;2.80;;;8.20;92.70;;;;;;5095661;28;20034;-80
2021/12/07 13:10:09;;;;;;;14.90;2.80;;;8.40;92.40;;;;;;5096893;28;20115;-80
2021/12/07 13:12:38;;;;;;;7.60;2.50;;;8.40;92.20;;;;;;5115451;28;20083;-80
2021/12/07 13:15:09;;;;;;;16.38;2.50;;;8.40;92.30;;;;;;5096132;28;20084;-80
2021/12/07 13:17:44;;;;;;;12.68;2.25;;;8.30;92.60;;;;;;5080275;28;20043;-80
2021/12/07 13:20:30;;;;;;;13.73;2.20;;;8.10;93.20;;;;;;5116301;28;20036;-80
2021/12/07 13:23:00;;;;;;;13.30;2.03;;;7.90;93.00;;;;;;5116450;28;20030;-80
2021/12/07 13:25:28;;;;;;;12.77;2.17;;;7.70;93.30;;;;;;5116865;28;20038;-80
2021/12/07 13:28:10;;;;;;;10.65;2.03;;;7.50;93.70;;;;;;5097039;28;20118;-80
2021/12/07 13:31:14;;;;;;;11.70;2.35;;;7.40;94.00;;;;;;5114093;28;20080;-80
2021/12/07 13:33:41;;;;;;;15.15;2.83;;;7.30;94.30;;;;;;5109168;28;20088;-80
2021/12/07 13:36:45;;;;;;;7.40;2.20;;;7.10;94.50;;;;;;5097612;28;20475;-80
2021/12/07 13:39:14;;;;;;;13.43;2.15;;;7.00;94.60;;;;;;5047930;28;20047;-80
2021/12/07 13:41:48;;;;;;;13.45;2.00;;;7.00;94.90;;;;;;5117189;28;20425;-80
2021/12/07 13:44:15;;;;;;;13.50;2.75;;;6.90;95.10;;;;;;5098399;28;20030;-80
2021/12/07 13:46:40;;;;;;;10.10;2.10;;;6.90;95.10;;;;;;5098379;28;20383;-79
2021/12/07 13:49:09;;;;;;;10.55;1.95;;;6.90;95.20;;;;;;5060767;28;20039;-80
2021/12/07 13:51:36;;;;;;;7.32;2.13;;;6.80;95.30;;;;;;5079699;28;20388;-80
2021/12/07 13:54:04;;;;;;;10.98;2.42;;;6.80;95.40;;;;;;5098003;28;20042;-80
2021/12/07 13:56:38;;;;;;;9.70;3.22;;;6.70;95.50;;;;;;5098839;28;20510;-80
2021/12/07 13:59:12;;;;;;;8.00;2.15;;;6.70;95.30;;;;;;5098370;28;20047;-80
2021/12/07 14:01:47;;;;;;;13.30;2.63;;;6.70;95.40;;;;;;5089665;28;20103;-80
2021/12/07 14:04:12;;;;;;;14.68;3.78;;;6.60;95.50;;;;;;5098332;28;20028;-80
2021/12/07 14:06:44;;;;;;;11.80;3.03;;;6.60;95.70;;;;;;5116615;28;20023;-80
2021/12/07 14:09:10;;;;;;;11.52;3.15;;;6.60;96.10;;;;;;5081723;28;20381;-80
2021/12/07 14:11:38;;;;;;;10.07;2.45;;;6.60;95.90;;;;;;5064776;28;20024;-80
2021/12/07 14:14:13;;;;;;;13.55;2.58;;;6.60;96.20;;;;;;5076170;28;20758;-80
2021/12/07 14:16:40;;;;;;;10.30;2.17;;;6.50;95.90;;;;;;5077874;28;20065;-80
2021/12/07 14:19:06;;;;;;;8.07;2.13;;;6.50;95.90;;;;;;5095037;28;20389;-80
2021/12/07 14:21:32;;;;;;;14.43;2.08;;;6.50;95.90;;;;;;5095925;28;20473;-80
2021/12/07 14:24:07;;;;;;;4.72;1.38;;;6.50;95.90;;;;;;5080494;28;20084;-80
2021/12/07 14:26:36;;;;;;;9.27;1.80;;;6.40;96.00;;;;;;5087798;28;20028;-80
2021/12/07 14:29:15;;;;;;;10.70;2.40;;;6.40;96.00;;;;;;5108311;28;20099;-80
2021/12/07 14:31:47;;;;;;;10.40;1.45;;;6.40;96.00;;;;;;5116167;28;20058;-80
2021/12/07 14:34:19;;;;;;;8.10;2.25;;;6.30;96.10;;;;;;5097813;28;20022;-80
2021/12/07 14:36:47;;;;;;;11.02;1.90;;;6.30;96.20;;;;;;5097702;28;20076;-80
2021/12/07 14:39:21;;;;;;;9.98;1.77;;;6.30;96.20;;;;;;5115911;28;20425;-80
2021/12/07 14:41:57;;;;;;;17.77;2.33;;;6.30;96.20;;;;;;5097732;28;20035;-80